createdAt,value
2023-10-21T00:00:20.707Z,95161.25
2023-10-21T00:02:50.643Z,95179.38
2023-10-21T00:05:19.472Z,95165.97
2023-10-21T00:07:47.951Z,95184.09
2023-10-21T00:10:16.475Z,95177.78
2023-10-21T00:12:46.443Z,95180.53
2023-10-21T00:15:14.901Z,95192.72
2023-10-21T00:17:43.586Z,95199.81
2023-10-21T00:20:15.798Z,95199.81
2023-10-21T00:22:45.215Z,95206.50
2023-10-21T00:25:13.659Z,95209.25
2023-10-21T00:27:42.099Z,95193.53
2023-10-21T00:30:13.112Z,95207.66
2023-10-21T00:32:41.712Z,95222.25
2023-10-21T00:35:10.904Z,95211.59
2023-10-21T00:37:40.678Z,95221.44
2023-10-21T00:40:10.672Z,95232.47
2023-10-21T00:42:39.512Z,95232.47
2023-10-21T00:45:09.349Z,95233.63
2023-10-21T00:47:38.195Z,95239.56
2023-10-21T00:50:08.088Z,95239.56
2023-10-21T00:52:46.539Z,95235.22
2023-10-21T00:55:15.244Z,95226.94
2023-10-21T00:57:44.502Z,95229.72
2023-10-21T01:00:14.205Z,95233.63
2023-10-21T01:02:46.208Z,95237.56
2023-10-21T01:05:16.743Z,95243.06
2023-10-21T01:07:46.642Z,95260.38
2023-10-21T01:10:15.146Z,95270.59
2023-10-21T01:12:43.578Z,95273.38
2023-10-21T01:15:12.846Z,95276.13
2023-10-21T01:17:42.076Z,95289.91
2023-10-21T01:20:11.927Z,95292.66
2023-10-21T01:22:40.658Z,95302.50
2023-10-21T01:25:10.764Z,95303.66
2023-10-21T01:27:39.332Z,95302.88
2023-10-21T01:30:08.849Z,95303.66
2023-10-21T01:32:37.387Z,95303.66
2023-10-21T01:35:07.371Z,95302.88
2023-10-21T01:37:35.944Z,95302.88
2023-10-21T01:40:04.786Z,95307.59
2023-10-21T01:42:35.413Z,95306.00
2023-10-21T01:45:05.347Z,95313.09
2023-10-21T01:47:34.127Z,95317.03
2023-10-21T01:50:01.982Z,95331.59
2023-10-21T01:52:30.906Z,95335.13
2023-10-21T01:55:00.714Z,95339.84
2023-10-21T01:57:29.169Z,95343.41
2023-10-21T01:59:59.260Z,95339.06
2023-10-21T02:02:28.207Z,95338.25
2023-10-21T02:04:56.828Z,95351.25
2023-10-21T02:07:25.320Z,95352.84
2023-10-21T02:09:53.792Z,95361.09
2023-10-21T02:12:22.307Z,95355.59
2023-10-21T02:14:50.885Z,95355.59
2023-10-21T02:17:20.687Z,95355.59
2023-10-21T02:19:49.255Z,95366.59
2023-10-21T02:22:17.732Z,95367.41
2023-10-21T02:24:46.181Z,95377.63
2023-10-21T02:27:14.708Z,95378.41
2023-10-21T02:29:45.224Z,95394.94
2023-10-21T02:32:13.773Z,95388.63
2023-10-21T02:34:43.889Z,95406.75
2023-10-21T02:37:12.746Z,95412.28
2023-10-21T02:39:41.452Z,95415.03
2023-10-21T02:42:10.443Z,95416.19
2023-10-21T02:44:38.839Z,95422.50
2023-10-21T02:47:07.375Z,95419.75
2023-10-21T02:49:57.671Z,95416.97
2023-10-21T02:52:26.229Z,95423.28
2023-10-21T02:54:54.759Z,95416.97
2023-10-21T02:57:23.320Z,95421.69
2023-10-21T02:59:51.832Z,95422.50
2023-10-21T03:02:20.432Z,95434.31
2023-10-21T03:04:48.930Z,95433.50
2023-10-21T03:07:18.719Z,95431.56
2023-10-21T03:09:47.483Z,95439.03
2023-10-21T03:12:16.019Z,95443.75
2023-10-21T03:14:44.568Z,95450.84
2023-10-21T03:17:13.112Z,95455.56
2023-10-21T03:19:40.607Z,95463.44
2023-10-21T03:22:09.041Z,95461.84
2023-10-21T03:24:38.843Z,95461.84
2023-10-21T03:27:07.383Z,95461.06
2023-10-21T03:29:35.136Z,95464.59
2023-10-21T03:32:06.544Z,95457.13
2023-10-21T03:34:35.217Z,95461.84
2023-10-21T03:37:04.107Z,95472.88
2023-10-21T03:39:33.367Z,95477.59
2023-10-21T03:42:03.287Z,95486.66
2023-10-21T03:44:31.845Z,95486.66
2023-10-21T03:47:00.646Z,95475.63
2023-10-21T03:49:29.082Z,95500.44
2023-10-21T03:51:57.465Z,95499.63
2023-10-21T03:54:25.972Z,95509.84
2023-10-21T03:56:54.511Z,95513.41
2023-10-21T03:59:24.293Z,95515.38
2023-10-21T04:01:52.971Z,95511.44
2023-10-21T04:04:21.809Z,95516.94
2023-10-21T04:06:50.423Z,95512.59
2023-10-21T04:09:18.883Z,95523.63
2023-10-21T04:11:47.322Z,95512.59
2023-10-21T04:14:15.745Z,95522.47
2023-10-21T04:16:46.485Z,95533.47
2023-10-21T04:19:15.701Z,95539.00
2023-10-21T04:21:44.180Z,95542.91
2023-10-21T04:24:12.627Z,95551.19
2023-10-21T04:26:41.036Z,95541.75
2023-10-21T04:29:09.997Z,95545.28
2023-10-21T04:31:40.334Z,95548.41
2023-10-21T04:34:10.128Z,95549.59
2023-10-21T04:36:38.643Z,95558.63
2023-10-21T04:39:08.679Z,95566.53
2023-10-21T04:41:37.073Z,95570.47
2023-10-21T04:44:05.687Z,95577.56
2023-10-21T04:46:34.159Z,95588.59
2023-10-21T04:49:02.669Z,95594.88
2023-10-21T04:51:32.490Z,95591.69
2023-10-21T04:54:00.925Z,95591.34
2023-10-21T04:56:29.394Z,95596.84
2023-10-21T04:58:57.985Z,95610.63
2023-10-21T05:01:26.480Z,95610.63
2023-10-21T05:03:55.088Z,95623.22
2023-10-21T05:06:23.747Z,95618.88
2023-10-21T05:08:53.798Z,95626.34
2023-10-21T05:11:22.186Z,95631.06
2023-10-21T05:13:50.635Z,95628.31
2023-10-21T05:16:19.072Z,95631.06
2023-10-21T05:18:47.567Z,95636.56
2023-10-21T05:21:16.142Z,95643.25
2023-10-21T05:23:44.550Z,95657.03
2023-10-21T05:26:14.938Z,95657.03
2023-10-21T05:28:44.100Z,95663.31
2023-10-21T05:31:12.621Z,95675.16
2023-10-21T05:33:41.446Z,95676.31
2023-10-21T05:36:10.014Z,95686.97
2023-10-21T05:38:38.640Z,95686.16
2023-10-21T05:41:07.141Z,95691.69
2023-10-21T05:43:37.663Z,95692.84
2023-10-21T05:46:06.308Z,95698.34
2023-10-21T05:48:34.814Z,95701.09
2023-10-21T05:51:03.712Z,95713.72
2023-10-21T05:53:32.302Z,95719.22
2023-10-21T05:56:00.822Z,95718.06
2023-10-21T05:58:33.817Z,95728.28
2023-10-21T06:01:09.564Z,95738.94
2023-10-21T06:03:38.394Z,95742.84
2023-10-21T06:06:08.058Z,95745.19
2023-10-21T06:08:36.595Z,95749.53
2023-10-21T06:11:05.193Z,95770.41
2023-10-21T06:13:33.816Z,95769.63
2023-10-21T06:16:05.709Z,95772.38
2023-10-21T06:18:35.580Z,95769.63
2023-10-21T06:21:04.407Z,95775.91
2023-10-21T06:23:33.433Z,95781.44
2023-10-21T06:26:02.008Z,95790.50
2023-10-21T06:28:31.495Z,95799.91
2023-10-21T06:31:03.705Z,95796.38
2023-10-21T06:33:32.376Z,95802.66
2023-10-21T06:36:02.459Z,95805.44
2023-10-21T06:38:30.992Z,95804.28
2023-10-21T06:41:12.871Z,95809.78
2023-10-21T06:43:43.275Z,95814.50
2023-10-21T06:46:14.599Z,95820.78
2023-10-21T06:48:43.177Z,95825.50
2023-10-21T06:51:14.303Z,95825.50
2023-10-21T06:53:42.779Z,95840.09
2023-10-21T06:56:14.646Z,95831.81
2023-10-21T06:58:45.313Z,95840.44
2023-10-21T07:01:13.851Z,95844.00
2023-10-21T07:03:42.420Z,95853.06
2023-10-21T07:06:12.787Z,95860.16
2023-10-21T07:08:42.695Z,95866.47
2023-10-21T07:11:11.192Z,95864.88
2023-10-21T07:13:39.714Z,95876.69
2023-10-21T07:16:09.070Z,95881.41
2023-10-21T07:18:37.905Z,95883.81
2023-10-21T07:21:06.869Z,95889.31
2023-10-21T07:23:42.063Z,95895.63
2023-10-21T07:26:10.729Z,95907.44
2023-10-21T07:28:39.274Z,95907.44
2023-10-21T07:31:07.857Z,95914.91
2023-10-21T07:33:36.473Z,95919.63
2023-10-21T07:36:06.920Z,95924.34
2023-10-21T07:38:35.500Z,95933.41
2023-10-21T07:41:12.063Z,95937.31
2023-10-21T07:43:40.694Z,95937.31
2023-10-21T07:46:09.287Z,95933.41
2023-10-21T07:48:38.181Z,95943.63
2023-10-21T07:51:07.094Z,95935.72
2023-10-21T07:53:36.318Z,95943.28
2023-10-21T07:56:05.070Z,95945.22
2023-10-21T07:58:35.841Z,95949.94
2023-10-21T08:01:04.555Z,95946.81
2023-10-21T08:03:35.857Z,95950.72
2023-10-21T08:06:04.499Z,95962.56
2023-10-21T08:08:33.047Z,95962.56
2023-10-21T08:11:03.689Z,95968.06
2023-10-21T08:13:36.469Z,95977.94
2023-10-21T08:16:05.373Z,95972.06
2023-10-21T08:18:34.046Z,95977.94
2023-10-21T08:21:05.525Z,95981.47
2023-10-21T08:23:34.770Z,95980.69
2023-10-21T08:26:03.252Z,95981.47
2023-10-21T08:28:31.763Z,95990.91
2023-10-21T08:31:02.094Z,96001.94
2023-10-21T08:33:30.526Z,96011.44
2023-10-21T08:35:59.016Z,96020.88
2023-10-21T08:38:27.458Z,96022.81
2023-10-21T08:40:55.894Z,96030.28
2023-10-21T08:43:25.410Z,96026.38
2023-10-21T08:45:54.762Z,96034.63
2023-10-21T08:48:26.554Z,96026.38
2023-10-21T08:50:56.392Z,96037.38
2023-10-21T08:53:27.558Z,96042.91
2023-10-21T08:55:55.963Z,96045.66
2023-10-21T08:58:29.387Z,96051.16
2023-10-21T09:00:58.100Z,96047.63
2023-10-21T09:03:28.015Z,96065.75
2023-10-21T09:06:08.029Z,96066.09
2023-10-21T09:08:36.470Z,96071.25
2023-10-21T09:11:07.976Z,96072.06
2023-10-21T09:13:37.116Z,96064.16
2023-10-21T09:16:20.367Z,96061.75
2023-10-21T09:19:00.583Z,96061.66
2023-10-21T09:21:38.440Z,96057.66
2023-10-21T09:24:08.312Z,96066.28
2023-10-21T09:26:37.603Z,96062.28
2023-10-21T09:29:08.020Z,96066.19
2023-10-21T09:31:55.289Z,96068.13
2023-10-21T09:34:30.677Z,96081.09
2023-10-21T09:37:00.664Z,96088.91
2023-10-21T09:39:31.830Z,96084.56
2023-10-21T09:42:01.385Z,96091.69
2023-10-21T09:44:31.810Z,96093.97
2023-10-21T09:47:01.460Z,96099.50
2023-10-21T09:49:37.974Z,96091.22
2023-10-21T09:52:10.746Z,96099.50
2023-10-21T09:54:43.650Z,96095.94
2023-10-21T09:57:35.862Z,96097.88
2023-10-21T10:00:06.801Z,96093.53
2023-10-21T10:02:37.324Z,96098.59
2023-10-21T10:05:09.270Z,96101.34
2023-10-21T10:07:42.010Z,96104.09
2023-10-21T10:10:12.248Z,96094.69
2023-10-21T10:12:45.254Z,96104.56
2023-10-21T10:15:30.914Z,96110.88
2023-10-21T10:18:00.248Z,96102.94
2023-10-21T10:20:30.140Z,96108.47
2023-10-21T10:23:03.463Z,96109.63
2023-10-21T10:25:33.748Z,96107.22
2023-10-21T10:28:06.052Z,96102.84
2023-10-21T10:30:35.036Z,96103.66
2023-10-21T10:33:09.065Z,96098.94
2023-10-21T10:35:42.869Z,96091.47
2023-10-21T10:38:25.471Z,96092.63
2023-10-21T10:41:00.332Z,96089.88
2023-10-21T10:43:30.509Z,96092.63
2023-10-21T10:45:59.131Z,96095.38
2023-10-21T10:48:30.233Z,96091.84
2023-10-21T10:51:02.018Z,96094.94
2023-10-21T10:53:46.489Z,96096.53
2023-10-21T10:56:20.618Z,96098.50
2023-10-21T10:58:49.815Z,96090.59
2023-10-21T11:01:22.483Z,96103.66
2023-10-21T11:04:01.975Z,96109.16
2023-10-21T11:06:37.779Z,96107.56
2023-10-21T11:09:07.975Z,96121.34
2023-10-21T11:12:07.034Z,96126.84
2023-10-21T11:14:39.546Z,96125.69
2023-10-21T11:17:08.468Z,96129.59
2023-10-21T11:19:37.232Z,96136.00
2023-10-21T11:22:09.599Z,96129.78
2023-10-21T11:24:38.586Z,96130.69
2023-10-21T11:27:08.052Z,96135.50
2023-10-21T11:29:38.385Z,96134.78
2023-10-21T11:32:12.752Z,96131.34
2023-10-21T11:34:45.786Z,96131.78
2023-10-21T11:37:15.695Z,96140.50
2023-10-21T11:39:44.249Z,96132.69
2023-10-21T11:42:18.621Z,96137.03
2023-10-21T11:44:56.744Z,96141.38
2023-10-21T11:47:27.662Z,96143.31
2023-10-21T11:49:56.979Z,96146.88
2023-10-21T11:52:28.448Z,96141.81
2023-10-21T11:55:16.059Z,96143.06
2023-10-21T11:58:00.104Z,96140.75
2023-10-21T12:00:46.584Z,96139.94
2023-10-21T12:03:32.778Z,96145.91
2023-10-21T12:06:33.331Z,96145.91
2023-10-21T12:09:20.896Z,96143.59
2023-10-21T12:12:06.877Z,96149.56
2023-10-21T12:14:58.367Z,96153.47
2023-10-21T12:19:21.788Z,96141.75
2023-10-21T12:22:07.866Z,96155.16
2023-10-21T12:24:54.017Z,96156.78
2023-10-21T12:27:39.715Z,96146.56
2023-10-21T12:30:36.759Z,96153.66
2023-10-21T12:33:21.250Z,96154.47
2023-10-21T12:36:08.849Z,96154.47
2023-10-21T12:38:40.049Z,96152.50
2023-10-21T12:41:21.846Z,96159.19
2023-10-21T12:43:50.277Z,96163.88
2023-10-21T12:46:23.477Z,96159.88
2023-10-21T12:48:53.372Z,96167.72
2023-10-21T12:51:25.014Z,96161.28
2023-10-21T12:54:04.269Z,96162.91
2023-10-21T12:56:42.075Z,96171.63
2023-10-21T12:59:10.631Z,96166.09
2023-10-21T13:01:39.740Z,96172.06
2023-10-21T13:04:08.922Z,96183.53
2023-10-21T13:06:39.443Z,96175.72
2023-10-21T13:09:22.703Z,96176.50
2023-10-21T13:11:52.803Z,96189.94
2023-10-21T13:14:22.534Z,96194.31
2023-10-21T13:16:51.559Z,96197.97
2023-10-21T13:19:20.321Z,96197.97
2023-10-21T13:21:50.289Z,96187.38
2023-10-21T13:24:18.672Z,96192.91
2023-10-21T13:26:47.107Z,96200.38
2023-10-21T13:29:15.506Z,96204.38
2023-10-21T13:31:43.929Z,96200.47
2023-10-21T13:34:12.316Z,96199.66
2023-10-21T13:36:40.778Z,96191.84
2023-10-21T13:39:16.815Z,96202.88
2023-10-21T13:41:45.491Z,96197.69
2023-10-21T13:44:14.161Z,96194.94
2023-10-21T13:46:42.947Z,96190.22
2023-10-21T13:49:15.910Z,96185.53
2023-10-21T13:51:45.512Z,96182.41
2023-10-21T13:54:16.350Z,96174.50
2023-10-21T13:56:45.359Z,96174.94
2023-10-21T13:59:15.265Z,96177.69
2023-10-21T14:01:44.473Z,96172.88
2023-10-21T14:04:15.694Z,96177.59
2023-10-21T14:06:44.839Z,96179.09
2023-10-21T14:09:24.031Z,96183.03
2023-10-21T14:11:54.826Z,96181.41
2023-10-21T14:14:23.270Z,96194.41
2023-10-21T14:16:53.225Z,96199.13
2023-10-21T14:19:23.257Z,96207.38
2023-10-21T14:21:52.594Z,96210.50
2023-10-21T14:24:21.420Z,96208.09
2023-10-21T14:26:49.836Z,96212.00
2023-10-21T14:29:25.039Z,96218.31
2023-10-21T14:31:53.706Z,96213.59
2023-10-21T14:34:22.102Z,96214.41
2023-10-21T14:36:50.563Z,96221.44
2023-10-21T14:39:19.072Z,96223.72
2023-10-21T14:41:47.611Z,96220.53
2023-10-21T14:44:16.022Z,96233.16
2023-10-21T14:46:49.016Z,96230.41
2023-10-21T14:49:17.589Z,96234.31
2023-10-21T14:51:46.105Z,96241.06
2023-10-21T14:54:14.608Z,96244.19
2023-10-21T14:56:43.397Z,96248.09
2023-10-21T14:59:11.977Z,96253.59
2023-10-21T15:01:42.063Z,96247.63
2023-10-21T15:04:12.069Z,96256.25
2023-10-21T15:06:40.604Z,96251.91
2023-10-21T15:09:10.563Z,96255.00
2023-10-21T15:11:39.096Z,96257.41
2023-10-21T15:14:07.558Z,96254.19
2023-10-21T15:16:36.937Z,96252.25
2023-10-21T15:19:06.352Z,96247.88
2023-10-21T15:21:36.223Z,96243.97
2023-10-21T15:24:04.972Z,96247.09
2023-10-21T15:26:34.769Z,96245.47
2023-10-21T15:29:03.163Z,96255.69
2023-10-21T15:31:31.794Z,96257.31
2023-10-21T15:34:00.863Z,96262.81
2023-10-21T15:36:29.407Z,96253.41
2023-10-21T15:38:59.260Z,96253.75
2023-10-21T15:41:28.296Z,96252.94
2023-10-21T15:44:00.308Z,96259.25
2023-10-21T15:46:28.939Z,96255.69
2023-10-21T15:48:57.676Z,96262.81
2023-10-21T15:51:26.259Z,96261.22
2023-10-21T15:53:54.850Z,96270.63
2023-10-21T15:56:24.776Z,96267.53
2023-10-21T15:58:53.397Z,96265.13
2023-10-21T16:01:21.826Z,96272.94
2023-10-21T16:03:50.606Z,96281.66
2023-10-21T16:06:19.363Z,96286.38
2023-10-21T16:08:47.901Z,96280.06
2023-10-21T16:11:16.415Z,96296.59
2023-10-21T16:13:46.237Z,96302.91
2023-10-21T16:16:14.893Z,96297.75
2023-10-21T16:18:46.094Z,96295.78
2023-10-21T16:21:14.963Z,96302.09
2023-10-21T16:23:44.238Z,96307.63
2023-10-21T16:26:12.877Z,96306.81
2023-10-21T16:28:41.393Z,96308.78
2023-10-21T16:31:11.273Z,96314.28
2023-10-21T16:33:39.889Z,96306.81
2023-10-21T16:36:08.961Z,96313.13
2023-10-21T16:38:37.574Z,96321.03
2023-10-21T16:41:07.145Z,96310.72
2023-10-21T16:43:37.265Z,96320.59
2023-10-21T16:46:06.156Z,96319.44
2023-10-21T16:48:36.134Z,96324.16
2023-10-21T16:51:04.969Z,96319.44
2023-10-21T16:53:33.427Z,96328.06
2023-10-21T16:56:03.846Z,96329.66
2023-10-21T16:58:32.406Z,96339.53
2023-10-21T17:01:00.950Z,96339.09
2023-10-21T17:03:29.513Z,96350.91
2023-10-21T17:06:01.627Z,96345.41
2023-10-21T17:08:36.913Z,96345.41
2023-10-21T17:11:05.772Z,96350.09
2023-10-21T17:13:34.355Z,96354.34
2023-10-21T17:16:03.926Z,96352.69
2023-10-21T17:18:35.398Z,96353.81
2023-10-21T17:21:05.883Z,96357.03
2023-10-21T17:23:34.380Z,96363.00
2023-10-21T17:26:02.932Z,96367.00
2023-10-21T17:28:31.550Z,96374.91
2023-10-21T17:31:00.045Z,96377.31
2023-10-21T17:33:33.617Z,96384.44
2023-10-21T17:36:10.010Z,96382.94
2023-10-21T17:38:38.594Z,96390.06
2023-10-21T17:41:07.112Z,96396.38
2023-10-21T17:43:38.125Z,96385.00
2023-10-21T17:46:06.777Z,96402.34
2023-10-21T17:48:35.465Z,96407.84
2023-10-21T17:51:06.325Z,96414.16
2023-10-21T17:53:36.191Z,96409.47
2023-10-21T17:56:05.485Z,96422.09
2023-10-21T17:58:33.964Z,96425.31
2023-10-21T18:01:05.460Z,96433.56
2023-10-21T18:03:35.049Z,96437.13
2023-10-21T18:06:03.821Z,96437.94
2023-10-21T18:08:33.205Z,96447.81
2023-10-21T18:11:03.100Z,96451.38
2023-10-21T18:13:31.663Z,96443.44
2023-10-21T18:16:00.379Z,96455.28
2023-10-21T18:18:28.982Z,96457.59
2023-10-21T18:20:57.624Z,96457.59
2023-10-21T18:23:26.262Z,96462.28
2023-10-21T18:25:59.394Z,96462.28
2023-10-21T18:28:30.050Z,96458.72
2023-10-21T18:30:58.830Z,96460.69
2023-10-21T18:33:27.539Z,96461.84
2023-10-21T18:35:56.132Z,96459.06
2023-10-21T18:38:25.787Z,96463.78
2023-10-21T18:40:54.343Z,96471.72
2023-10-21T18:43:22.884Z,96468.59
2023-10-21T18:45:54.303Z,96470.22
2023-10-21T18:48:22.930Z,96478.94
2023-10-21T18:50:57.442Z,96486.06
2023-10-21T18:53:26.013Z,96476.66
2023-10-21T18:55:54.696Z,96470.31
2023-10-21T18:58:23.220Z,96481.34
2023-10-21T19:00:57.843Z,96490.44
2023-10-21T19:03:26.467Z,96485.72
2023-10-21T19:05:55.047Z,96486.06
2023-10-21T19:08:25.126Z,96486.06
2023-10-21T19:10:53.530Z,96495.47
2023-10-21T19:13:22.055Z,96497.78
2023-10-21T19:15:50.668Z,96492.25
2023-10-21T19:18:20.740Z,96486.75
2023-10-21T19:20:49.217Z,96494.56
2023-10-21T19:23:17.728Z,96490.19
2023-10-21T19:25:47.483Z,96483.88
2023-10-21T19:28:15.978Z,96494.44
2023-10-21T19:30:44.770Z,96488.13
2023-10-21T19:33:13.438Z,96500.31
2023-10-21T19:35:43.376Z,96502.25
2023-10-21T19:38:11.796Z,96506.97
2023-10-21T19:40:40.361Z,96513.63
2023-10-21T19:43:09.137Z,96537.63
2023-10-21T19:45:41.991Z,96542.34
2023-10-21T19:48:10.918Z,96545.91
2023-10-21T19:50:43.610Z,96547.84
2023-10-21T19:53:12.838Z,96547.84
2023-10-21T19:55:41.318Z,96545.09
2023-10-21T19:58:09.939Z,96542.34
2023-10-21T20:00:38.503Z,96543.50
2023-10-21T20:03:07.054Z,96531.66
2023-10-21T20:05:36.841Z,96541.88
2023-10-21T20:08:06.842Z,96546.25
2023-10-21T20:10:35.484Z,96541.88
2023-10-21T20:13:04.116Z,96549.34
2023-10-21T20:15:32.678Z,96543.03
2023-10-21T20:18:01.166Z,96547.72
2023-10-21T20:20:29.634Z,96550.84
2023-10-21T20:22:58.131Z,96549.22
2023-10-21T20:25:27.899Z,96549.22
2023-10-21T20:27:56.489Z,96564.19
2023-10-21T20:30:25.115Z,96545.22
2023-10-21T20:32:53.662Z,96559.00
2023-10-21T20:35:34.410Z,96564.88
2023-10-21T20:38:05.073Z,96572.00
2023-10-21T20:40:35.106Z,96575.88
2023-10-21T20:43:03.801Z,96577.84
2023-10-21T20:45:32.276Z,96571.19
2023-10-21T20:48:00.769Z,96568.75
2023-10-21T20:50:29.268Z,96573.13
2023-10-21T20:52:57.757Z,96574.28
2023-10-21T20:55:26.291Z,96577.03
2023-10-21T20:57:56.102Z,96573.47
2023-10-21T21:00:24.735Z,96576.22
2023-10-21T21:02:53.261Z,96589.19
2023-10-21T21:05:22.091Z,96586.09
2023-10-21T21:07:53.856Z,96579.78
2023-10-21T21:10:22.926Z,96577.03
2023-10-21T21:12:52.959Z,96579.78
2023-10-21T21:15:23.731Z,96586.44
2023-10-21T21:17:52.832Z,96586.78
2023-10-21T21:20:22.686Z,96587.59
2023-10-21T21:22:51.468Z,96584.50
2023-10-21T21:25:20.549Z,96580.13
2023-10-21T21:27:50.396Z,96583.69
2023-10-21T21:30:19.435Z,96593.09
2023-10-21T21:32:49.666Z,96587.59
2023-10-21T21:35:18.798Z,96587.59
2023-10-21T21:37:47.419Z,96592.31
2023-10-21T21:40:16.237Z,96595.06
2023-10-21T21:42:44.894Z,96597.00
2023-10-21T21:45:13.850Z,96597.00
2023-10-21T21:47:42.250Z,96598.63
2023-10-21T21:50:12.233Z,96597.81
2023-10-21T21:52:40.738Z,96597.00
2023-10-21T21:55:09.953Z,96599.75
2023-10-21T21:57:38.514Z,96601.72
2023-10-21T22:00:10.138Z,96598.63
2023-10-21T22:02:39.737Z,96603.31
2023-10-21T22:05:10.748Z,96609.63
2023-10-21T22:07:40.700Z,96615.16
2023-10-21T22:10:10.036Z,96602.53
2023-10-21T22:12:39.872Z,96609.63
2023-10-21T22:15:09.684Z,96601.38
2023-10-21T22:17:39.805Z,96604.13
2023-10-21T22:20:19.523Z,96606.53
2023-10-21T22:22:53.090Z,96607.34
2023-10-21T22:25:28.966Z,96613.66
2023-10-21T22:28:02.477Z,96615.63
2023-10-21T22:30:31.047Z,96607.34
2023-10-21T22:32:59.607Z,96611.72
2023-10-21T22:35:28.176Z,96625.50
2023-10-21T22:37:58.012Z,96621.13
2023-10-21T22:40:26.523Z,96624.69
2023-10-21T22:42:55.121Z,96628.25
2023-10-21T22:45:23.924Z,96632.16
2023-10-21T22:47:52.942Z,96636.50
2023-10-21T22:50:22.338Z,96632.63
2023-10-21T22:52:50.960Z,96636.50
2023-10-21T22:55:22.382Z,96642.03
2023-10-21T22:57:52.195Z,96641.22
2023-10-21T23:00:22.753Z,96647.53
2023-10-21T23:02:51.745Z,96651.91
2023-10-21T23:05:20.482Z,96655.81
2023-10-21T23:07:48.954Z,96649.50
2023-10-21T23:10:19.901Z,96656.94
2023-10-21T23:12:51.100Z,96654.53
2023-10-21T23:15:21.081Z,96658.09
2023-10-21T23:17:51.532Z,96650.97
2023-10-21T23:20:20.242Z,96654.53
2023-10-21T23:22:48.816Z,96657.63
2023-10-21T23:25:21.227Z,96655.69
2023-10-21T23:27:54.007Z,96659.25
2023-10-21T23:30:22.895Z,96665.91
2023-10-21T23:32:51.693Z,96660.72
2023-10-21T23:35:22.346Z,96668.66
2023-10-21T23:37:51.184Z,96667.84
2023-10-21T23:40:19.955Z,96671.75
2023-10-21T23:42:49.684Z,96686.00
2023-10-21T23:45:20.934Z,96679.69
2023-10-21T23:47:50.536Z,96678.88
2023-10-21T23:50:19.429Z,96689.09
2023-10-21T23:52:48.013Z,96682.78
2023-10-21T23:55:16.608Z,96687.47
2023-10-21T23:57:45.322Z,96693.78
